Time;durP1;ratioP1;P1;durP2;ratioP2;P2;SDS_P1;SDS_P2;PMS_P1;PMS_P2;Temp;Humidity;BMP_temperature;BMP_pressure;BME280_temperature;BME280_humidity;BME280_pressure;Samples;Min_cycle;Max_cycle;Signal;HPM_P1;HPM_P2
2023/01/01 00:02:16;;;;;;;9.18;5.95;;;21.20;83.60;;;;;;5058011;28;20200;-40
2023/01/01 00:04:46;;;;;;;6.30;5.70;;;21.20;83.30;;;;;;5061945;28;20223;-42
2023/01/01 00:07:13;;;;;;;8.90;4.80;;;21.20;83.60;;;;;;5062195;28;20196;-40
2023/01/01 00:12:24;;;;;;;6.43;5.13;;;21.10;84.60;;;;;;5065833;28;20716;-40
2023/01/01 00:14:50;;;;;;;7.78;6.80;;;21.10;83.90;;;;;;5067895;28;20219;-40
2023/01/01 00:17:17;;;;;;;5.63;4.88;;;21.10;84.00;;;;;;5066313;28;20215;-42
2023/01/01 00:19:45;;;;;;;8.57;5.50;;;21.10;84.00;;;;;;5061498;28;20583;-40
2023/01/01 00:22:12;;;;;;;7.68;6.78;;;21.10;84.00;;;;;;5064283;28;20206;-40
2023/01/01 00:24:38;;;;;;;10.32;9.30;;;21.00;84.70;;;;;;5063386;28;20200;-43
2023/01/01 00:27:05;;;;;;;69.30;66.53;;;21.00;84.20;;;;;;5067340;28;20416;-40
2023/01/01 00:29:32;;;;;;;8.90;5.22;;;21.00;84.20;;;;;;5066163;28;20202;-40
2023/01/01 00:31:58;;;;;;;10.30;9.35;;;21.00;84.30;;;;;;5064799;28;20203;-40
2023/01/01 00:34:25;;;;;;;62.95;59.35;;;21.00;84.50;;;;;;5066301;28;20417;-41
2023/01/01 00:36:53;;;;;;;9.73;6.38;;;20.90;84.30;;;;;;5068614;28;20224;-42
2023/01/01 00:39:20;;;;;;;24.70;23.25;;;20.90;84.20;;;;;;5057369;28;20196;-42
2023/01/01 00:41:47;;;;;;;9.00;8.10;;;20.90;84.30;;;;;;5062888;28;20211;-40
2023/01/01 00:44:13;;;;;;;9.43;8.70;;;21.00;84.60;;;;;;5065853;28;20191;-40
2023/01/01 00:46:40;;;;;;;5.60;4.85;;;20.90;84.50;;;;;;5067438;28;20577;-42
2023/01/01 00:49:07;;;;;;;7.47;6.65;;;20.90;84.60;;;;;;5063274;28;20195;-41
2023/01/01 00:51:33;;;;;;;11.05;9.95;;;20.90;84.80;;;;;;5067304;28;20674;-41
2023/01/01 00:54:01;;;;;;;12.38;11.27;;;20.90;84.80;;;;;;5064227;28;20214;-43
2023/01/01 00:56:28;;;;;;;15.95;14.75;;;20.80;84.80;;;;;;5061492;28;20579;-40
2023/01/01 00:58:55;;;;;;;5.22;4.72;;;20.90;85.00;;;;;;5067188;28;20203;-40
2023/01/01 01:01:21;;;;;;;7.30;5.65;;;20.90;85.00;;;;;;5067353;28;20192;-40
2023/01/01 01:03:48;;;;;;;6.18;5.05;;;20.90;85.00;;;;;;5065069;28;20202;-40
2023/01/01 01:06:17;;;;;;;6.07;4.57;;;20.90;84.50;;;;;;5067674;28;20693;-40
2023/01/01 01:08:46;;;;;;;6.15;5.55;;;20.90;84.80;;;;;;5063220;28;20230;-40
2023/01/01 01:11:15;;;;;;;6.75;5.85;;;20.80;84.90;;;;;;5062619;28;20211;-40
2023/01/01 01:13:43;;;;;;;6.13;5.03;;;20.80;84.60;;;;;;5066966;28;20210;-42
2023/01/01 01:16:11;;;;;;;5.53;5.00;;;20.80;85.00;;;;;;5058574;28;20556;-42
2023/01/01 01:18:38;;;;;;;4.85;4.28;;;20.80;84.90;;;;;;5061586;28;20202;-39
2023/01/01 01:21:05;;;;;;;5.25;4.50;;;20.80;85.10;;;;;;5061827;28;20716;-40
2023/01/01 01:23:33;;;;;;;6.38;5.60;;;20.70;84.90;;;;;;5059658;28;20199;-44
2023/01/01 01:26:08;;;;;;;5.72;4.57;;;20.80;85.30;;;;;;5066514;28;20195;-40
2023/01/01 01:28:36;;;;;;;6.60;5.95;;;20.80;85.40;;;;;;5061704;28;20207;-41
2023/01/01 01:31:02;;;;;;;4.90;4.07;;;20.70;85.90;;;;;;5067670;28;20199;-41
2023/01/01 01:33:29;;;;;;;5.13;4.63;;;20.70;85.30;;;;;;5064643;28;20671;-41
2023/01/01 01:35:56;;;;;;;6.63;3.92;;;20.70;84.40;;;;;;5067661;28;20211;-40
2023/01/01 01:38:23;;;;;;;5.63;4.88;;;20.60;85.20;;;;;;5060263;28;20222;-40
2023/01/01 01:40:49;;;;;;;6.53;4.30;;;20.60;85.70;;;;;;5064267;28;20199;-40
2023/01/01 01:43:22;;;;;;;7.85;3.60;;;20.60;85.60;;;;;;5064056;28;20194;-40
2023/01/01 01:45:51;;;;;;;5.63;5.13;;;20.60;85.40;;;;;;5064889;28;20750;-40
2023/01/01 01:48:18;;;;;;;9.20;5.22;;;20.60;85.30;;;;;;5061871;28;20191;-40
2023/01/01 01:50:48;;;;;;;6.47;5.88;;;20.60;85.30;;;;;;5066896;28;20247;-40
2023/01/01 01:53:22;;;;;;;13.43;6.07;;;20.60;85.40;;;;;;5067332;28;20193;-40
2023/01/01 01:55:53;;;;;;;10.05;9.15;;;20.60;85.40;;;;;;5062799;28;20280;-41
2023/01/01 01:58:20;;;;;;;6.47;5.88;;;20.60;85.40;;;;;;5059799;28;20195;-40
2023/01/01 02:00:48;;;;;;;5.30;4.80;;;20.60;85.40;;;;;;5060274;28;20562;-40
2023/01/01 02:03:20;;;;;;;6.35;5.43;;;20.60;85.30;;;;;;5063736;28;20196;-40
2023/01/01 02:05:47;;;;;;;6.75;6.10;;;20.60;85.30;;;;;;5059333;28;20199;-41
2023/01/01 02:08:15;;;;;;;8.35;5.60;;;20.70;85.50;;;;;;5063534;28;20214;-41
2023/01/01 02:10:42;;;;;;;8.55;7.80;;;20.60;85.30;;;;;;5068029;28;20203;-41
2023/01/01 02:13:09;;;;;;;9.48;5.60;;;20.60;85.30;;;;;;5062291;28;20191;-40
2023/01/01 02:15:41;;;;;;;7.07;6.22;;;20.60;85.40;;;;;;5069834;28;20212;-40
2023/01/01 02:18:12;;;;;;;5.82;4.78;;;20.50;85.20;;;;;;5071564;28;20210;-40
2023/01/01 02:20:48;;;;;;;5.13;4.18;;;20.50;85.30;;;;;;5068372;28;20298;-40
2023/01/01 02:23:31;;;;;;;8.70;7.53;;;20.50;85.20;;;;;;5066910;28;20665;-40
2023/01/01 02:26:10;;;;;;;5.93;5.43;;;20.50;85.30;;;;;;5069054;28;20214;-41
2023/01/01 02:28:48;;;;;;;6.25;5.68;;;20.50;85.30;;;;;;5072778;28;20236;-40
2023/01/01 02:31:21;;;;;;;6.68;6.07;;;20.50;85.30;;;;;;5061886;28;20196;-40
2023/01/01 02:33:50;;;;;;;47.25;45.10;;;20.50;85.40;;;;;;5065246;28;20206;-44
2023/01/01 02:36:18;;;;;;;5.43;4.93;;;20.50;85.40;;;;;;5070737;28;20585;-40
2023/01/01 02:38:47;;;;;;;4.07;3.78;;;20.50;85.30;;;;;;5066459;28;20200;-40
2023/01/01 02:41:19;;;;;;;5.38;4.80;;;20.50;85.50;;;;;;5065404;28;20204;-40
2023/01/01 02:43:48;;;;;;;7.43;6.72;;;20.40;85.30;;;;;;5066450;28;20202;-42
2023/01/01 02:46:15;;;;;;;4.75;3.67;;;20.40;85.30;;;;;;5071086;28;20209;-40
2023/01/01 02:48:45;;;;;;;5.10;4.60;;;20.40;85.30;;;;;;5071082;28;20210;-40
2023/01/01 02:51:23;;;;;;;9.57;5.10;;;20.40;85.40;;;;;;5068353;28;20191;-40
2023/01/01 02:54:01;;;;;;;6.88;6.25;;;20.40;85.40;;;;;;5068524;28;20190;-44
2023/01/01 02:56:36;;;;;;;8.68;7.88;;;20.40;85.40;;;;;;5069698;28;20698;-42
2023/01/01 03:02:09;;;;;;;9.73;8.80;;;20.40;85.40;;;;;;5067385;28;20307;-39
2023/01/01 03:04:47;;;;;;;47.97;46.00;;;20.40;85.50;;;;;;5070595;28;20198;-40
2023/01/01 03:07:21;;;;;;;13.90;12.77;;;20.40;85.40;;;;;;5071492;28;20654;-40
2023/01/01 03:09:55;;;;;;;29.35;27.90;;;20.40;85.50;;;;;;5069476;28;20209;-39
2023/01/01 03:12:38;;;;;;;6.68;6.10;;;20.40;85.60;;;;;;5066619;28;20195;-41
2023/01/01 03:15:15;;;;;;;9.27;8.38;;;20.30;85.40;;;;;;5069332;28;20277;-43
2023/01/01 03:17:49;;;;;;;8.80;7.93;;;20.30;85.40;;;;;;5065367;28;20972;-39
2023/01/01 03:20:21;;;;;;;9.25;8.43;;;20.30;85.50;;;;;;5068993;28;20212;-41
2023/01/01 03:22:49;;;;;;;5.80;5.18;;;20.30;85.50;;;;;;5069843;28;20558;-40
2023/01/01 03:25:21;;;;;;;13.82;12.52;;;20.30;85.50;;;;;;5065560;28;20559;-40
2023/01/01 03:27:50;;;;;;;9.45;8.65;;;20.30;85.60;;;;;;5067591;28;20646;-40
2023/01/01 03:30:20;;;;;;;9.88;8.98;;;20.30;85.60;;;;;;5067756;28;20190;-40
2023/01/01 03:33:00;;;;;;;8.30;7.03;;;20.30;85.50;;;;;;5067753;28;21674;-40
2023/01/01 03:35:31;;;;;;;8.15;7.45;;;20.30;85.40;;;;;;5069701;28;20187;-43
2023/01/01 03:38:01;;;;;;;13.82;13.02;;;20.30;85.50;;;;;;5064300;28;20194;-40
2023/01/01 03:40:33;;;;;;;19.98;18.67;;;20.30;85.60;;;;;;5067477;28;20203;-40
2023/01/01 03:43:07;;;;;;;8.75;8.05;;;20.30;85.60;;;;;;5069081;28;20195;-41
2023/01/01 03:45:39;;;;;;;7.93;7.22;;;20.20;85.50;;;;;;5065788;28;20201;-39
2023/01/01 03:48:06;;;;;;;6.15;5.63;;;20.20;85.50;;;;;;5066860;28;20268;-40
2023/01/01 03:50:43;;;;;;;10.07;9.23;;;20.20;85.50;;;;;;5067415;28;20191;-40
2023/01/01 03:53:19;;;;;;;5.47;4.97;;;20.20;85.50;;;;;;5065499;28;20198;-40
2023/01/01 03:55:48;;;;;;;9.20;7.43;;;20.20;85.50;;;;;;5067277;28;20199;-40
2023/01/01 03:58:24;;;;;;;6.07;5.50;;;20.20;85.50;;;;;;5064985;28;20196;-40
2023/01/01 04:00:58;;;;;;;8.35;7.65;;;20.20;85.50;;;;;;5067562;28;20197;-40
2023/01/01 04:03:28;;;;;;;7.55;6.95;;;20.10;85.30;;;;;;5063523;28;20215;-41
2023/01/01 04:05:55;;;;;;;9.73;8.77;;;20.20;85.40;;;;;;5062517;28;20190;-39
2023/01/01 04:08:22;;;;;;;5.68;5.18;;;20.20;85.50;;;;;;5068503;28;20197;-41
2023/01/01 04:10:59;;;;;;;7.28;6.07;;;20.20;85.50;;;;;;5067761;28;20194;-40
2023/01/01 04:13:25;;;;;;;5.10;4.65;;;20.20;85.60;;;;;;5069518;28;20221;-40
2023/01/01 04:15:53;;;;;;;7.07;6.38;;;20.20;85.50;;;;;;5065726;28;20193;-40
2023/01/01 04:18:20;;;;;;;5.63;5.15;;;20.20;85.50;;;;;;5065412;28;20579;-40
2023/01/01 04:20:47;;;;;;;5.50;5.00;;;20.20;85.60;;;;;;5064872;28;20215;-40
2023/01/01 04:23:13;;;;;;;5.45;4.90;;;20.20;85.60;;;;;;5067770;28;20201;-40
2023/01/01 04:25:40;;;;;;;6.00;5.40;;;20.20;86.30;;;;;;5063266;28;20540;-40
2023/01/01 04:28:07;;;;;;;35.05;33.42;;;20.10;85.40;;;;;;5068754;28;20210;-39
2023/01/01 04:30:33;;;;;;;6.55;5.95;;;20.10;85.50;;;;;;5066840;28;20206;-40
2023/01/01 04:33:02;;;;;;;4.90;4.50;;;20.10;85.40;;;;;;5064759;28;20562;-40
2023/01/01 04:35:28;;;;;;;4.15;3.75;;;20.10;85.40;;;;;;5066350;28;20201;-41
2023/01/01 04:37:55;;;;;;;7.20;5.80;;;20.10;85.40;;;;;;5068700;28;20579;-39
2023/01/01 04:40:22;;;;;;;5.40;4.80;;;20.10;85.40;;;;;;5065345;28;20195;-39
2023/01/01 04:42:48;;;;;;;3.63;3.33;;;20.10;85.50;;;;;;5068477;28;20188;-40
2023/01/01 04:45:16;;;;;;;7.70;7.10;;;20.10;85.50;;;;;;5066165;28;20194;-40
2023/01/01 04:47:43;;;;;;;4.80;4.07;;;20.10;85.50;;;;;;5060595;28;20205;-44
2023/01/01 04:50:11;;;;;;;5.70;5.18;;;20.10;85.50;;;;;;5067036;28;20222;-40
2023/01/01 04:52:38;;;;;;;7.00;5.00;;;20.10;85.50;;;;;;5067574;28;20194;-45
2023/01/01 04:55:05;;;;;;;6.50;5.90;;;20.10;85.50;;;;;;5065818;28;20195;-40
2023/01/01 04:57:32;;;;;;;5.20;4.70;;;20.10;85.50;;;;;;5068006;28;20681;-40
2023/01/01 04:59:59;;;;;;;8.32;6.20;;;20.10;85.50;;;;;;5065794;28;20195;-42
2023/01/01 05:02:26;;;;;;;3.30;2.88;;;20.10;85.50;;;;;;5064337;28;20194;-40
2023/01/01 05:04:52;;;;;;;4.75;4.38;;;20.10;85.50;;;;;;5065367;28;20202;-41
2023/01/01 05:07:21;;;;;;;4.03;3.70;;;20.00;85.50;;;;;;5066199;28;20202;-39
2023/01/01 05:09:47;;;;;;;5.28;4.78;;;20.10;85.50;;;;;;5064974;28;20666;-40
2023/01/01 05:12:14;;;;;;;5.20;4.75;;;20.30;84.70;;;;;;5066409;28;20205;-39
2023/01/01 05:14:41;;;;;;;4.80;4.30;;;20.50;83.70;;;;;;5067756;28;20199;-40
2023/01/01 05:17:08;;;;;;;5.53;5.03;;;20.60;82.80;;;;;;5064892;28;20701;-41
2023/01/01 05:19:34;;;;;;;5.10;4.68;;;20.80;82.10;;;;;;5066338;28;20226;-40
2023/01/01 05:22:01;;;;;;;8.70;7.95;;;21.00;81.60;;;;;;5067025;28;20202;-40
2023/01/01 05:24:30;;;;;;;7.90;6.90;;;21.10;81.00;;;;;;5064794;28;20559;-40
2023/01/01 05:26:56;;;;;;;4.50;4.10;;;21.20;80.40;;;;;;5068228;28;20195;-40
2023/01/01 05:29:23;;;;;;;5.90;5.30;;;21.30;80.00;;;;;;5064715;28;20198;-40
2023/01/01 05:31:50;;;;;;;11.07;10.27;;;21.40;79.60;;;;;;5064271;28;20723;-40
2023/01/01 05:34:17;;;;;;;11.55;10.75;;;21.50;79.20;;;;;;5064724;28;20196;-40
2023/01/01 05:36:44;;;;;;;7.00;6.50;;;21.60;78.80;;;;;;5063339;28;20219;-41
2023/01/01 05:39:12;;;;;;;12.15;11.15;;;21.70;78.50;;;;;;5065616;28;20198;-40
2023/01/01 05:41:41;;;;;;;28.70;27.20;;;21.60;78.30;;;;;;5069452;28;20199;-39
2023/01/01 05:44:09;;;;;;;257.73;247.63;;;21.60;78.30;;;;;;5065620;28;20191;-40
2023/01/01 05:46:36;;;;;;;106.88;102.85;;;21.60;78.40;;;;;;5065007;28;20203;-41
2023/01/01 05:49:03;;;;;;;67.20;64.68;;;21.60;78.40;;;;;;5064022;28;20207;-40
2023/01/01 05:51:31;;;;;;;407.58;389.45;;;21.50;78.40;;;;;;5068063;28;20662;-40
2023/01/01 05:53:58;;;;;;;138.05;133.00;;;21.50;78.50;;;;;;5065459;28;20197;-41
2023/01/01 05:56:25;;;;;;;56.15;53.80;;;21.50;78.40;;;;;;5063566;28;20191;-39
2023/01/01 05:58:54;;;;;;;21.15;20.13;;;21.70;78.10;;;;;;5066988;28;20202;-40
2023/01/01 06:01:23;;;;;;;17.95;17.00;;;21.80;77.60;;;;;;5061888;28;20203;-40
2023/01/01 06:03:50;;;;;;;16.73;15.90;;;21.90;77.20;;;;;;5066518;28;20577;-40
2023/01/01 06:06:19;;;;;;;5.75;5.20;;;21.90;77.10;;;;;;5066607;28;20568;-40
2023/01/01 06:08:50;;;;;;;15.63;14.85;;;21.90;77.00;;;;;;5066794;28;20193;-40
2023/01/01 06:11:17;;;;;;;14.00;13.23;;;22.00;76.80;;;;;;5060754;28;20567;-40
2023/01/01 06:13:44;;;;;;;16.30;15.40;;;22.00;76.50;;;;;;5069132;28;20192;-41
2023/01/01 06:16:12;;;;;;;19.02;18.02;;;22.10;76.30;;;;;;5065387;28;20556;-41
2023/01/01 06:18:39;;;;;;;33.92;32.50;;;22.10;76.10;;;;;;5063749;28;20235;-40
2023/01/01 06:21:08;;;;;;;202.27;194.17;;;22.10;76.20;;;;;;5068090;28;20208;-41
2023/01/01 06:23:35;;;;;;;227.00;218.55;;;22.10;76.30;;;;;;5064814;28;20460;-41
2023/01/01 06:26:07;;;;;;;56.45;54.35;;;22.10;76.40;;;;;;5066825;28;20196;-40
2023/01/01 06:28:33;;;;;;;203.98;196.40;;;22.00;76.50;;;;;;5067582;28;20203;-40
2023/01/01 06:31:01;;;;;;;147.35;141.98;;;22.00;76.50;;;;;;5067788;28;20571;-41
2023/01/01 06:33:29;;;;;;;71.45;68.65;;;21.90;76.60;;;;;;5059087;28;20215;-46
2023/01/01 06:35:56;;;;;;;139.52;134.52;;;21.90;76.70;;;;;;5064953;28;20196;-39
2023/01/01 06:38:22;;;;;;;145.63;139.98;;;21.90;76.70;;;;;;5062585;28;20220;-42
2023/01/01 06:40:56;;;;;;;4.10;3.70;;;21.80;76.70;;;;;;5063376;28;20204;-40
2023/01/01 06:43:22;;;;;;;5.30;4.88;;;21.80;76.90;;;;;;5066908;28;20196;-43
2023/01/01 06:45:49;;;;;;;4.32;3.88;;;21.80;77.00;;;;;;5065717;28;20203;-43
2023/01/01 06:48:16;;;;;;;4.75;4.35;;;21.80;77.00;;;;;;5065351;28;20195;-40
2023/01/01 06:50:44;;;;;;;5.28;4.88;;;21.80;76.90;;;;;;5059825;28;20202;-41
2023/01/01 06:53:10;;;;;;;3.97;3.67;;;21.80;76.80;;;;;;5059913;28;20204;-40
2023/01/01 06:55:37;;;;;;;6.82;6.32;;;21.70;76.50;;;;;;5064506;28;20462;-40
2023/01/01 06:58:08;;;;;;;5.15;4.32;;;21.70;76.30;;;;;;5070676;28;20223;-40
2023/01/01 07:00:34;;;;;;;5.10;4.70;;;21.90;76.40;;;;;;5062413;28;20199;-40
2023/01/01 07:03:01;;;;;;;14.93;14.13;;;21.90;76.20;;;;;;5071071;28;20548;-40
2023/01/01 07:05:28;;;;;;;11.98;11.27;;;22.00;76.20;;;;;;5070205;28;20195;-41
2023/01/01 07:07:56;;;;;;;10.60;9.98;;;22.00;75.90;;;;;;5068946;28;20203;-40
2023/01/01 07:10:22;;;;;;;19.23;18.13;;;22.10;75.80;;;;;;5065246;28;20801;-41
2023/01/01 07:12:49;;;;;;;6.73;6.30;;;22.10;75.70;;;;;;5065097;28;20200;-41
2023/01/01 07:15:16;;;;;;;9.13;8.33;;;22.10;75.60;;;;;;5065587;28;20469;-41
2023/01/01 07:17:43;;;;;;;12.73;11.93;;;22.10;75.50;;;;;;5063968;28;20490;-40
2023/01/01 07:20:10;;;;;;;25.90;24.70;;;22.20;75.50;;;;;;5068217;28;20220;-40
2023/01/01 07:22:39;;;;;;;6.40;5.80;;;22.20;75.60;;;;;;5067541;28;20463;-40
2023/01/01 07:25:10;;;;;;;4.90;4.50;;;22.10;75.60;;;;;;5068727;28;20196;-40
2023/01/01 07:27:36;;;;;;;4.30;3.90;;;22.10;75.60;;;;;;5071367;28;20212;-43
2023/01/01 07:30:04;;;;;;;4.50;4.20;;;22.20;75.80;;;;;;5068078;28;20197;-41
2023/01/01 07:32:30;;;;;;;5.30;3.90;;;22.10;75.70;;;;;;5070316;28;20462;-40
2023/01/01 07:34:57;;;;;;;3.30;3.00;;;22.10;75.80;;;;;;5065144;28;20191;-43
2023/01/01 07:37:25;;;;;;;2.97;2.67;;;22.10;75.80;;;;;;5070138;28;20219;-40
2023/01/01 07:39:52;;;;;;;3.00;2.70;;;22.00;75.70;;;;;;5065868;28;20462;-44
2023/01/01 07:42:20;;;;;;;3.20;2.80;;;22.00;75.70;;;;;;5070819;28;20481;-41
2023/01/01 07:44:46;;;;;;;3.20;2.90;;;22.00;75.80;;;;;;5068481;28;20462;-40
2023/01/01 07:47:20;;;;;;;3.23;2.93;;;22.00;75.80;;;;;;5066432;28;20208;-40
2023/01/01 07:49:47;;;;;;;3.70;3.20;;;22.00;75.80;;;;;;5069239;28;20477;-41
2023/01/01 07:52:14;;;;;;;3.90;3.60;;;22.00;75.90;;;;;;5068598;28;20961;-41
2023/01/01 07:54:40;;;;;;;2.33;2.13;;;22.00;75.90;;;;;;5064591;28;20462;-41
2023/01/01 07:57:07;;;;;;;3.50;2.97;;;22.00;75.80;;;;;;5066016;28;20219;-40
2023/01/01 07:59:35;;;;;;;3.10;2.80;;;22.00;75.90;;;;;;5070674;28;20462;-41
2023/01/01 08:02:02;;;;;;;4.20;3.80;;;21.90;75.80;;;;;;5065035;28;20458;-41
2023/01/01 08:04:29;;;;;;;4.50;3.47;;;21.90;75.90;;;;;;5068394;28;20469;-40
2023/01/01 08:06:56;;;;;;;2.80;2.60;;;21.90;75.90;;;;;;5063646;28;20464;-41
2023/01/01 08:09:23;;;;;;;2.00;1.90;;;21.90;75.80;;;;;;5066380;28;20191;-40
2023/01/01 08:11:51;;;;;;;3.20;2.90;;;22.00;75.90;;;;;;5066911;28;20457;-46
2023/01/01 08:14:18;;;;;;;3.40;3.10;;;21.90;76.00;;;;;;5070817;28;20455;-43
2023/01/01 08:16:46;;;;;;;3.93;3.53;;;21.90;76.40;;;;;;5067896;28;20462;-41
2023/01/01 08:19:13;;;;;;;2.92;2.72;;;21.90;76.00;;;;;;5066509;28;20489;-42
2023/01/01 08:21:39;;;;;;;2.33;2.13;;;22.00;76.00;;;;;;5067388;28;20211;-42
2023/01/01 08:24:06;;;;;;;3.93;3.30;;;22.00;75.90;;;;;;5064585;28;20192;-42
2023/01/01 08:26:35;;;;;;;2.80;2.60;;;22.00;76.00;;;;;;5066634;28;20466;-43
2023/01/01 08:29:03;;;;;;;4.50;3.00;;;22.10;76.00;;;;;;5070435;28;20199;-42
2023/01/01 08:31:30;;;;;;;3.22;2.60;;;22.10;76.50;;;;;;5065950;28;20462;-42
2023/01/01 08:33:58;;;;;;;3.78;3.40;;;22.10;76.70;;;;;;5062241;28;20201;-44
2023/01/01 08:36:25;;;;;;;7.00;3.05;;;22.00;77.30;;;;;;5066875;28;20575;-42
2023/01/01 08:38:52;;;;;;;5.40;4.90;;;22.00;77.30;;;;;;5066326;28;20228;-44
2023/01/01 08:41:18;;;;;;;3.00;2.40;;;22.10;77.10;;;;;;5065426;28;20195;-43
2023/01/01 08:43:45;;;;;;;3.80;3.50;;;22.10;77.30;;;;;;5064827;28;20204;-38
2023/01/01 08:46:12;;;;;;;4.40;4.05;;;22.10;77.00;;;;;;5059463;28;20200;-42
2023/01/01 08:48:38;;;;;;;3.55;3.25;;;22.20;76.30;;;;;;5059649;28;20212;-43
2023/01/01 08:51:07;;;;;;;3.65;3.35;;;22.20;75.90;;;;;;5060469;28;20199;-43
2023/01/01 08:53:33;;;;;;;3.47;3.17;;;22.20;75.80;;;;;;5057852;28;20196;-42
2023/01/01 08:56:03;;;;;;;3.85;2.95;;;22.20;75.60;;;;;;5055618;28;20563;-43
2023/01/01 08:58:30;;;;;;;3.05;2.78;;;22.20;75.60;;;;;;5061025;28;20268;-45
2023/01/01 09:00:58;;;;;;;3.53;3.22;;;22.20;75.50;;;;;;5063212;28;20200;-43
2023/01/01 09:03:25;;;;;;;2.55;2.35;;;22.20;75.40;;;;;;5058959;28;20521;-42
2023/01/01 09:05:52;;;;;;;3.60;2.75;;;22.20;75.40;;;;;;5062538;28;20194;-42
2023/01/01 09:08:20;;;;;;;3.72;3.38;;;22.20;75.30;;;;;;5060742;28;20208;-42
2023/01/01 09:10:48;;;;;;;3.03;2.50;;;22.10;76.10;;;;;;5061736;28;20193;-42
2023/01/01 09:13:17;;;;;;;3.05;2.72;;;22.10;75.30;;;;;;5059336;28;20203;-42
2023/01/01 09:15:44;;;;;;;2.80;2.15;;;22.10;75.40;;;;;;5061521;28;20196;-43
2023/01/01 09:18:11;;;;;;;3.15;2.90;;;22.10;75.60;;;;;;5057429;28;20215;-43
2023/01/01 09:20:38;;;;;;;2.47;2.28;;;22.00;76.40;;;;;;5059555;28;20215;-42
2023/01/01 09:23:06;;;;;;;2.80;2.47;;;22.00;75.80;;;;;;5059117;28;20197;-42
2023/01/01 09:25:35;;;;;;;2.92;2.40;;;22.00;76.00;;;;;;5061052;28;20287;-42
2023/01/01 09:28:04;;;;;;;3.55;2.45;;;21.90;76.00;;;;;;5060715;28;20676;-42
2023/01/01 09:30:31;;;;;;;3.28;3.00;;;21.90;76.00;;;;;;5060507;28;20195;-42
2023/01/01 09:32:57;;;;;;;3.05;2.40;;;22.00;76.00;;;;;;5058713;28;21998;-43
2023/01/01 09:35:24;;;;;;;2.75;2.25;;;22.10;76.00;;;;;;5061043;28;20192;-42
2023/01/01 09:37:51;;;;;;;4.40;4.00;;;22.10;75.80;;;;;;5060663;28;20207;-43
2023/01/01 09:40:27;;;;;;;2.55;2.22;;;22.10;75.60;;;;;;5060243;28;20219;-43
2023/01/01 09:43:06;;;;;;;3.35;2.90;;;22.10;75.40;;;;;;5057780;28;20669;-42
2023/01/01 09:45:40;;;;;;;3.70;3.40;;;22.20;75.30;;;;;;5060720;28;20221;-43
2023/01/01 09:48:11;;;;;;;3.35;2.80;;;22.20;75.00;;;;;;5058259;28;20202;-43
2023/01/01 09:50:41;;;;;;;3.85;3.55;;;22.30;75.70;;;;;;5058220;28;20191;-44
2023/01/01 09:53:13;;;;;;;2.83;2.63;;;22.30;74.60;;;;;;5057673;28;20499;-43
2023/01/01 09:55:45;;;;;;;3.97;3.63;;;22.40;74.50;;;;;;5059215;28;20195;-44
2023/01/01 09:58:15;;;;;;;3.25;2.88;;;22.40;74.20;;;;;;5060529;28;20216;-43
2023/01/01 10:00:44;;;;;;;3.30;3.00;;;22.40;74.10;;;;;;5065319;28;20204;-43
2023/01/01 10:03:22;;;;;;;2.20;2.00;;;22.40;74.00;;;;;;5066264;28;20579;-43
2023/01/01 10:05:56;;;;;;;3.40;3.00;;;22.50;74.10;;;;;;5068374;28;20194;-43
2023/01/01 10:08:45;;;;;;;3.55;3.25;;;22.50;74.00;;;;;;5067238;28;20281;-42
2023/01/01 10:11:20;;;;;;;3.65;2.70;;;22.50;74.00;;;;;;5065570;28;20203;-42
2023/01/01 10:13:49;;;;;;;3.60;3.30;;;22.30;74.00;;;;;;5063199;28;20208;-42
2023/01/01 10:16:28;;;;;;;4.30;2.38;;;22.30;74.50;;;;;;5064519;28;20199;-42
2023/01/01 10:18:57;;;;;;;5.97;3.00;;;22.20;75.10;;;;;;5059717;28;20221;-41
2023/01/01 10:21:27;;;;;;;5.63;3.77;;;22.20;75.20;;;;;;5060682;28;20457;-41
2023/01/01 10:23:57;;;;;;;3.80;2.90;;;22.20;74.80;;;;;;5061693;28;20973;-42
2023/01/01 10:26:28;;;;;;;2.93;2.73;;;22.00;75.20;;;;;;5066685;28;20647;-42
2023/01/01 10:29:01;;;;;;;2.53;2.33;;;21.90;74.40;;;;;;5062573;28;20474;-42
2023/01/01 10:31:32;;;;;;;3.17;2.42;;;21.90;74.40;;;;;;5069944;28;20200;-43
2023/01/01 10:34:03;;;;;;;4.15;2.40;;;21.90;74.20;;;;;;5069048;28;20249;-42
2023/01/01 10:36:30;;;;;;;5.38;3.70;;;21.90;75.00;;;;;;5070644;28;20193;-42
2023/01/01 10:38:56;;;;;;;4.50;2.25;;;22.00;75.10;;;;;;5067116;28;20238;-42
2023/01/01 10:41:23;;;;;;;4.82;3.08;;;22.00;75.80;;;;;;5068578;28;20192;-41
2023/01/01 10:43:50;;;;;;;2.23;1.80;;;22.00;75.00;;;;;;5073141;28;20198;-41
2023/01/01 10:46:22;;;;;;;2.40;2.20;;;22.00;74.90;;;;;;5071883;28;20462;-43
2023/01/01 10:49:09;;;;;;;2.85;2.65;;;22.00;74.90;;;;;;5066696;28;20675;-42
2023/01/01 10:51:38;;;;;;;2.80;2.60;;;22.00;74.90;;;;;;5071157;28;20590;-43
2023/01/01 10:54:05;;;;;;;4.18;2.25;;;22.00;74.90;;;;;;5067311;28;20196;-42
2023/01/01 10:56:40;;;;;;;2.90;2.70;;;22.00;74.90;;;;;;5070975;28;20191;-43
2023/01/01 10:59:32;;;;;;;2.87;2.20;;;22.00;74.80;;;;;;5068721;28;20222;-42
2023/01/01 11:02:18;;;;;;;5.13;3.58;;;22.00;74.80;;;;;;5066141;28;20454;-42
2023/01/01 11:04:45;;;;;;;3.55;2.45;;;21.90;74.70;;;;;;5070032;28;20203;-42
2023/01/01 11:07:21;;;;;;;3.72;3.42;;;22.00;74.80;;;;;;5066664;28;20195;-42
2023/01/01 11:09:49;;;;;;;3.58;3.28;;;22.00;74.80;;;;;;5062637;28;20211;-42
2023/01/01 11:12:21;;;;;;;2.80;2.60;;;22.00;74.70;;;;;;5066339;28;20560;-42
2023/01/01 11:14:52;;;;;;;3.65;3.35;;;22.00;74.70;;;;;;5070071;28;20458;-42
2023/01/01 11:17:23;;;;;;;3.75;3.45;;;22.00;74.60;;;;;;5067838;28;20402;-42
2023/01/01 11:19:51;;;;;;;3.63;3.33;;;22.00;74.50;;;;;;5069057;28;20227;-41
2023/01/01 11:22:37;;;;;;;2.60;2.33;;;22.00;74.50;;;;;;5067694;28;20195;-43
2023/01/01 11:25:16;;;;;;;3.35;2.13;;;22.00;74.40;;;;;;5065717;28;20459;-42
2023/01/01 11:27:43;;;;;;;2.25;2.03;;;22.00;74.30;;;;;;5073296;28;20187;-42
2023/01/01 11:30:28;;;;;;;2.60;2.20;;;22.00;75.10;;;;;;5072422;28;20206;-42
2023/01/01 11:33:01;;;;;;;3.00;2.10;;;22.10;74.30;;;;;;5060729;28;20238;-42
2023/01/01 11:35:33;;;;;;;2.92;2.63;;;22.10;74.20;;;;;;5068062;28;20838;-42
2023/01/01 11:38:00;;;;;;;3.53;2.00;;;22.10;74.20;;;;;;5069641;28;20192;-42
2023/01/01 11:40:33;;;;;;;4.50;4.10;;;22.10;74.10;;;;;;5063492;28;20477;-42
2023/01/01 11:43:02;;;;;;;5.40;3.27;;;22.10;74.10;;;;;;5069139;28;20625;-42
2023/01/01 11:45:34;;;;;;;2.40;2.20;;;22.10;74.00;;;;;;5071189;28;20461;-42
2023/01/01 11:48:08;;;;;;;2.67;2.47;;;22.10;74.00;;;;;;5065311;28;20463;-42
2023/01/01 11:50:38;;;;;;;3.00;2.80;;;22.10;73.90;;;;;;5068968;28;20538;-43
2023/01/01 11:53:19;;;;;;;2.80;2.30;;;22.10;73.80;;;;;;5069687;28;20199;-42
2023/01/01 11:55:52;;;;;;;4.68;4.38;;;22.20;73.80;;;;;;5066867;28;20980;-41
2023/01/01 11:58:24;;;;;;;3.60;2.93;;;22.20;73.70;;;;;;5070817;28;20195;-43
2023/01/01 12:00:57;;;;;;;4.85;3.85;;;22.20;73.70;;;;;;5067988;28;20462;-43
2023/01/01 12:03:30;;;;;;;2.10;1.87;;;22.20;73.70;;;;;;5070315;28;20193;-43
2023/01/01 12:06:02;;;;;;;2.55;2.25;;;22.20;73.60;;;;;;5068414;28;20458;-42
2023/01/01 12:08:34;;;;;;;3.47;3.17;;;22.20;73.60;;;;;;5068145;28;20196;-42
2023/01/01 12:11:08;;;;;;;2.47;1.88;;;22.10;73.70;;;;;;5069871;28;20488;-42
2023/01/01 12:13:44;;;;;;;2.47;2.20;;;22.10;74.40;;;;;;5068062;28;20571;-41
2023/01/01 12:16:14;;;;;;;4.57;2.90;;;22.10;74.60;;;;;;5069224;28;20215;-42
2023/01/01 12:18:46;;;;;;;3.15;2.80;;;22.10;75.10;;;;;;5065347;28;20684;-43
2023/01/01 12:21:19;;;;;;;4.25;3.65;;;22.10;74.90;;;;;;5066200;28;20250;-45
2023/01/01 12:23:46;;;;;;;3.20;2.90;;;22.10;75.10;;;;;;5064110;28;20193;-45
2023/01/01 12:26:21;;;;;;;2.38;2.10;;;22.30;74.70;;;;;;5069903;28;20457;-46
2023/01/01 12:29:19;;;;;;;2.38;1.85;;;22.60;74.00;;;;;;5065893;28;20200;-47
2023/01/01 12:31:55;;;;;;;3.38;3.08;;;22.80;73.20;;;;;;5058904;28;20195;-49
2023/01/01 12:34:28;;;;;;;3.55;3.25;;;23.00;72.80;;;;;;5069553;28;20655;-44
2023/01/01 12:37:03;;;;;;;2.90;2.60;;;23.10;72.70;;;;;;5069813;28;20223;-46
2023/01/01 12:40:11;;;;;;;3.53;2.50;;;23.10;72.60;;;;;;5061406;28;20479;-46
2023/01/01 12:42:47;;;;;;;4.65;2.75;;;23.20;72.60;;;;;;5066484;28;20457;-46
2023/01/01 12:45:28;;;;;;;3.33;3.03;;;23.10;72.70;;;;;;5065515;28;20187;-45
2023/01/01 12:48:01;;;;;;;4.70;3.35;;;23.10;73.00;;;;;;5063280;28;20438;-46
2023/01/01 12:50:40;;;;;;;4.60;4.20;;;23.10;73.40;;;;;;5061909;28;20204;-47
2023/01/01 12:53:17;;;;;;;3.90;3.50;;;23.00;73.50;;;;;;5063671;28;20207;-47
2023/01/01 12:56:05;;;;;;;3.57;3.27;;;23.10;73.50;;;;;;5068330;28;20461;-43
2023/01/01 12:58:35;;;;;;;2.90;2.70;;;23.20;73.40;;;;;;5069921;28;20463;-45
2023/01/01 13:01:09;;;;;;;3.42;3.17;;;23.20;73.40;;;;;;5061064;28;20270;-46
2023/01/01 13:03:43;;;;;;;4.07;3.00;;;23.20;73.30;;;;;;5064839;28;20197;-44